Time;durP1;ratioP1;P1;durP2;ratioP2;P2;SDS_P1;SDS_P2;PMS_P1;PMS_P2;Temp;Humidity;BMP_temperature;BMP_pressure;BME280_temperature;BME280_humidity;BME280_pressure;Samples;Min_cycle;Max_cycle;Signal;HPM_P1;HPM_P2
2021/11/27 00:01:42;;;;;;;26.73;12.88;;;;;;;;;;4777452;30;20051;-83
2021/11/27 00:04:09;;;;;;;24.20;11.07;;;;;;;;;;4773070;30;20036;-83
2021/11/27 00:06:35;;;;;;;24.88;11.98;;;;;;;;;;4773562;30;20058;-82
2021/11/27 00:09:01;;;;;;;24.77;12.70;;;;;;;;;;4769879;30;20081;-83
2021/11/27 00:11:27;;;;;;;23.38;12.68;;;;;;;;;;4776381;30;20042;-82
2021/11/27 00:13:54;;;;;;;24.85;11.73;;;;;;;;;;4776341;30;20035;-83
2021/11/27 00:16:20;;;;;;;23.70;11.27;;;;;;;;;;4775893;30;20097;-83
2021/11/27 00:18:46;;;;;;;25.00;12.25;;;;;;;;;;4773041;30;20395;-81
2021/11/27 00:21:14;;;;;;;26.65;13.32;;;;;;;;;;4772767;30;20083;-81
2021/11/27 00:23:41;;;;;;;21.13;11.82;;;;;;;;;;4756673;30;20028;-80
2021/11/27 00:26:09;;;;;;;22.75;12.43;;;;;;;;;;4772118;30;20039;-81
2021/11/27 00:28:35;;;;;;;25.85;12.45;;;;;;;;;;4756833;30;20028;-83
2021/11/27 00:31:03;;;;;;;28.92;13.23;;;;;;;;;;4755750;30;20047;-82
2021/11/27 00:33:30;;;;;;;22.75;11.82;;;;;;;;;;4755968;30;20118;-82
2021/11/27 00:35:56;;;;;;;25.30;11.95;;;;;;;;;;4755713;30;20059;-81
2021/11/27 00:38:23;;;;;;;26.58;13.73;;;;;;;;;;4772077;30;20039;-83
2021/11/27 00:40:49;;;;;;;26.10;12.63;;;;;;;;;;4772173;30;20031;-83
2021/11/27 00:43:15;;;;;;;26.33;14.07;;;;;;;;;;4772068;30;20077;-83
2021/11/27 00:45:42;;;;;;;26.92;12.15;;;;;;;;;;4755858;30;20032;-83
2021/11/27 00:48:09;;;;;;;31.13;13.25;;;;;;;;;;4775489;30;20023;-82
2021/11/27 00:50:41;;;;;;;27.65;13.20;;;;;;;;;;4772443;30;20035;-83
2021/11/27 00:53:07;;;;;;;23.55;12.10;;;;;;;;;;4771854;30;20125;-82
2021/11/27 00:55:34;;;;;;;23.00;11.77;;;;;;;;;;4771803;30;20035;-83
2021/11/27 00:58:00;;;;;;;26.17;11.75;;;;;;;;;;4755720;30;20047;-81
2021/11/27 01:00:31;;;;;;;24.08;12.75;;;;;;;;;;4771008;30;20040;-83
2021/11/27 01:02:58;;;;;;;23.83;12.23;;;;;;;;;;4756306;30;20032;-81
2021/11/27 01:05:24;;;;;;;24.55;12.25;;;;;;;;;;4772218;30;20024;-81
2021/11/27 01:07:50;;;;;;;26.50;12.27;;;;;;;;;;4756639;30;20038;-81
2021/11/27 01:10:19;;;;;;;23.95;12.05;;;;;;;;;;4772564;30;20039;-81
2021/11/27 01:12:45;;;;;;;24.50;12.60;;;;;;;;;;4772073;30;20046;-83
2021/11/27 01:15:12;;;;;;;28.40;13.10;;;;;;;;;;4770805;30;20119;-83
2021/11/27 01:17:39;;;;;;;23.05;11.63;;;;;;;;;;4755378;30;20059;-83
2021/11/27 01:20:06;;;;;;;19.25;11.35;;;;;;;;;;4771179;30;20046;-83
2021/11/27 01:22:32;;;;;;;27.02;12.30;;;;;;;;;;4755367;30;20376;-82
2021/11/27 01:24:58;;;;;;;25.65;12.18;;;;;;;;;;4770649;30;20031;-83
2021/11/27 01:27:27;;;;;;;20.90;10.98;;;;;;;;;;4770911;30;20036;-83
2021/11/27 01:29:53;;;;;;;24.05;12.48;;;;;;;;;;4770432;30;20037;-82
2021/11/27 01:32:19;;;;;;;22.10;11.85;;;;;;;;;;4771290;30;20089;-83
2021/11/27 01:34:47;;;;;;;21.10;10.70;;;;;;;;;;4771049;30;20118;-82
2021/11/27 01:37:13;;;;;;;22.08;11.43;;;;;;;;;;4770658;30;20027;-83
2021/11/27 01:39:40;;;;;;;19.65;10.65;;;;;;;;;;4754255;30;20460;-83
2021/11/27 01:42:07;;;;;;;23.23;10.82;;;;;;;;;;4754257;30;20032;-82
2021/11/27 01:44:34;;;;;;;19.17;10.55;;;;;;;;;;4770270;30;20078;-83
2021/11/27 01:47:00;;;;;;;23.38;10.85;;;;;;;;;;4770601;30;20055;-83
2021/11/27 01:49:27;;;;;;;20.98;11.48;;;;;;;;;;4756437;30;20181;-81
2021/11/27 01:51:53;;;;;;;22.63;11.48;;;;;;;;;;4770300;30;20035;-81
2021/11/27 01:54:19;;;;;;;23.13;11.52;;;;;;;;;;4764512;30;20506;-82
2021/11/27 01:56:48;;;;;;;24.08;11.35;;;;;;;;;;4754623;30;20035;-82
2021/11/27 01:59:14;;;;;;;20.60;10.75;;;;;;;;;;4770057;30;20089;-82
2021/11/27 02:01:40;;;;;;;24.50;12.43;;;;;;;;;;4754434;30;20066;-82
2021/11/27 02:04:08;;;;;;;21.77;11.70;;;;;;;;;;4771168;30;20031;-81
2021/11/27 02:06:35;;;;;;;23.75;11.57;;;;;;;;;;4771493;30;20115;-81
2021/11/27 02:09:04;;;;;;;26.10;12.38;;;;;;;;;;4771707;30;20040;-81
2021/11/27 02:11:31;;;;;;;25.15;13.27;;;;;;;;;;4771347;30;20039;-81
2021/11/27 02:13:58;;;;;;;24.27;12.15;;;;;;;;;;4774967;30;20059;-82
2021/11/27 02:16:24;;;;;;;22.63;10.77;;;;;;;;;;4772321;30;20109;-81
2021/11/27 02:18:50;;;;;;;20.58;11.48;;;;;;;;;;4770955;30;20494;-81
2021/11/27 02:21:18;;;;;;;21.65;11.77;;;;;;;;;;4755617;30;20054;-80
2021/11/27 02:23:44;;;;;;;21.17;11.10;;;;;;;;;;4771161;30;20028;-81
2021/11/27 02:26:14;;;;;;;23.50;11.50;;;;;;;;;;4771988;30;20028;-81
2021/11/27 02:28:42;;;;;;;22.25;11.63;;;;;;;;;;4771453;30;20040;-81
2021/11/27 02:31:08;;;;;;;23.75;11.98;;;;;;;;;;4770532;30;20036;-82
2021/11/27 02:33:34;;;;;;;21.38;11.55;;;;;;;;;;4773736;30;20032;-81
2021/11/27 02:36:00;;;;;;;23.08;12.73;;;;;;;;;;4778812;30;20038;-82
2021/11/27 02:38:26;;;;;;;20.95;10.95;;;;;;;;;;4778828;30;20446;-81
2021/11/27 02:40:53;;;;;;;24.33;12.45;;;;;;;;;;4786897;30;20046;-81
2021/11/27 02:43:19;;;;;;;26.77;13.25;;;;;;;;;;4779572;30;20098;-81
2021/11/27 02:45:45;;;;;;;24.92;14.30;;;;;;;;;;4777919;30;20049;-81
2021/11/27 02:48:11;;;;;;;28.38;14.15;;;;;;;;;;4778935;30;20327;-81
2021/11/27 02:50:37;;;;;;;30.58;14.48;;;;;;;;;;4762959;30;20028;-81
2021/11/27 02:53:03;;;;;;;26.00;13.57;;;;;;;;;;4759289;30;20035;-80
2021/11/27 02:55:29;;;;;;;29.73;13.73;;;;;;;;;;4758134;30;20077;-80
2021/11/27 02:57:55;;;;;;;27.20;13.82;;;;;;;;;;4775583;30;20421;-80
2021/11/27 03:00:23;;;;;;;24.25;12.25;;;;;;;;;;4776462;30;20040;-81
2021/11/27 03:02:50;;;;;;;26.98;13.50;;;;;;;;;;4759996;30;20039;-80
2021/11/27 03:05:16;;;;;;;30.50;13.68;;;;;;;;;;4776544;30;20031;-80
2021/11/27 03:07:43;;;;;;;26.67;13.30;;;;;;;;;;4776805;30;20057;-80
2021/11/27 03:10:10;;;;;;;25.98;13.07;;;;;;;;;;4776927;30;20118;-81
2021/11/27 03:12:36;;;;;;;26.92;13.73;;;;;;;;;;4758400;30;20039;-82
2021/11/27 03:15:04;;;;;;;24.20;13.00;;;;;;;;;;4758484;30;20035;-80
2021/11/27 03:17:30;;;;;;;27.73;12.93;;;;;;;;;;4760395;30;20035;-80
2021/11/27 03:19:56;;;;;;;27.95;13.85;;;;;;;;;;4775375;30;20039;-80
2021/11/27 03:22:24;;;;;;;28.25;14.05;;;;;;;;;;4758913;30;20031;-79
2021/11/27 03:24:50;;;;;;;26.27;13.32;;;;;;;;;;4773318;30;20100;-80
2021/11/27 03:27:17;;;;;;;29.50;15.15;;;;;;;;;;4773530;30;20040;-80
2021/11/27 03:29:44;;;;;;;30.77;15.05;;;;;;;;;;4758907;30;20097;-80
2021/11/27 03:32:11;;;;;;;27.45;13.27;;;;;;;;;;4773907;30;20108;-80
2021/11/27 03:34:38;;;;;;;29.35;14.43;;;;;;;;;;4775607;30;20091;-81
2021/11/27 03:37:04;;;;;;;30.63;14.65;;;;;;;;;;4777706;30;20122;-81
2021/11/27 03:39:30;;;;;;;32.15;14.98;;;;;;;;;;4777598;30;20047;-81
2021/11/27 03:41:59;;;;;;;26.60;14.60;;;;;;;;;;4778165;30;20063;-81
2021/11/27 03:44:25;;;;;;;26.13;13.40;;;;;;;;;;4777300;30;20043;-81
2021/11/27 03:46:51;;;;;;;26.45;13.40;;;;;;;;;;4777957;30;20036;-82
2021/11/27 03:49:22;;;;;;;24.75;13.43;;;;;;;;;;4777360;30;20039;-82
2021/11/27 03:51:48;;;;;;;27.42;13.90;;;;;;;;;;4772308;30;20388;-82
2021/11/27 03:54:14;;;;;;;27.23;13.95;;;;;;;;;;4776259;30;20476;-81
2021/11/27 03:56:40;;;;;;;25.65;14.05;;;;;;;;;;4776247;30;20046;-81
2021/11/27 03:59:07;;;;;;;27.83;13.50;;;;;;;;;;4776447;30;20059;-81
2021/11/27 04:01:33;;;;;;;27.55;13.95;;;;;;;;;;4775040;30;20059;-82
2021/11/27 04:04:01;;;;;;;28.15;12.95;;;;;;;;;;4778786;30;20032;-83
2021/11/27 04:06:27;;;;;;;28.02;14.57;;;;;;;;;;4784244;30;20035;-82
2021/11/27 04:08:54;;;;;;;29.40;15.20;;;;;;;;;;4765245;30;20035;-80
2021/11/27 04:11:20;;;;;;;29.20;15.55;;;;;;;;;;4760686;30;20039;-81
2021/11/27 04:13:47;;;;;;;30.00;16.05;;;;;;;;;;4775382;30;20103;-81
2021/11/27 04:16:13;;;;;;;27.10;13.45;;;;;;;;;;4759554;30;20047;-81
2021/11/27 04:18:39;;;;;;;28.60;14.55;;;;;;;;;;4759748;30;20059;-82
2021/11/27 04:21:05;;;;;;;25.27;13.75;;;;;;;;;;4776150;30;20035;-81
2021/11/27 04:23:31;;;;;;;23.73;12.70;;;;;;;;;;4772860;30;20043;-81
2021/11/27 04:25:57;;;;;;;24.40;14.00;;;;;;;;;;4760925;30;20110;-81
2021/11/27 04:28:23;;;;;;;30.63;14.82;;;;;;;;;;4772362;30;20024;-81
2021/11/27 04:30:49;;;;;;;34.78;17.85;;;;;;;;;;4772186;30;20036;-81
2021/11/27 04:33:15;;;;;;;38.50;16.98;;;;;;;;;;4772381;30;20038;-81
2021/11/27 04:35:42;;;;;;;36.20;16.52;;;;;;;;;;4775933;30;20075;-82
2021/11/27 04:38:08;;;;;;;31.83;14.40;;;;;;;;;;4775698;30;20027;-82
2021/11/27 04:40:34;;;;;;;29.98;14.65;;;;;;;;;;4775138;30;20031;-82
2021/11/27 04:43:01;;;;;;;32.78;15.35;;;;;;;;;;4763383;30;20066;-82
2021/11/27 04:45:28;;;;;;;32.80;15.90;;;;;;;;;;4773893;30;20028;-80
2021/11/27 04:47:54;;;;;;;37.05;16.65;;;;;;;;;;4769047;30;20110;-80
2021/11/27 04:50:20;;;;;;;38.50;16.10;;;;;;;;;;4771284;30;20538;-80
2021/11/27 04:52:47;;;;;;;29.40;15.27;;;;;;;;;;4770734;30;20051;-82
2021/11/27 04:55:14;;;;;;;34.65;14.82;;;;;;;;;;4769308;30;20487;-82
2021/11/27 04:57:40;;;;;;;31.35;14.98;;;;;;;;;;4770176;30;20487;-81
2021/11/27 05:00:09;;;;;;;30.48;14.52;;;;;;;;;;4769629;30;20039;-81
2021/11/27 05:02:35;;;;;;;31.88;16.63;;;;;;;;;;4774434;30;20058;-82
2021/11/27 05:05:01;;;;;;;33.30;15.80;;;;;;;;;;4774495;30;20024;-81
2021/11/27 05:07:27;;;;;;;37.53;17.35;;;;;;;;;;4771743;30;20026;-81
2021/11/27 05:09:53;;;;;;;32.15;15.60;;;;;;;;;;4771963;30;20044;-81
2021/11/27 05:12:19;;;;;;;29.15;14.60;;;;;;;;;;4776297;30;20086;-80
2021/11/27 05:14:45;;;;;;;30.90;14.05;;;;;;;;;;4785796;30;20063;-80
2021/11/27 05:17:11;;;;;;;28.92;15.07;;;;;;;;;;4780802;30;20120;-81
2021/11/27 05:19:39;;;;;;;32.95;13.57;;;;;;;;;;4772129;30;20598;-81
2021/11/27 05:22:05;;;;;;;27.10;14.38;;;;;;;;;;4772424;30;20023;-81
2021/11/27 05:24:31;;;;;;;32.20;14.65;;;;;;;;;;4771532;30;20026;-81
2021/11/27 05:26:57;;;;;;;35.22;16.98;;;;;;;;;;4772712;30;20060;-81
2021/11/27 05:29:23;;;;;;;33.75;17.13;;;;;;;;;;4773242;30;20036;-81
2021/11/27 05:31:53;;;;;;;35.85;17.23;;;;;;;;;;4773273;30;20035;-80
2021/11/27 05:36:51;;;;;;;36.20;16.63;;;;;;;;;;4769829;30;20038;-81
2021/11/27 05:39:17;;;;;;;36.95;15.82;;;;;;;;;;4772244;30;20031;-81
2021/11/27 05:41:44;;;;;;;35.20;15.75;;;;;;;;;;4772128;30;20081;-81
2021/11/27 05:44:10;;;;;;;32.35;14.82;;;;;;;;;;4749543;30;1134983;-81
2021/11/27 05:46:36;;;;;;;34.92;16.13;;;;;;;;;;4773306;30;20032;-81
2021/11/27 05:49:03;;;;;;;27.83;14.00;;;;;;;;;;4772428;30;20439;-81
2021/11/27 05:51:29;;;;;;;26.85;13.13;;;;;;;;;;4771704;30;20047;-82
2021/11/27 05:53:55;;;;;;;25.58;13.48;;;;;;;;;;4770399;30;20419;-82
2021/11/27 05:56:21;;;;;;;28.45;15.05;;;;;;;;;;4756383;30;20068;-82
2021/11/27 05:58:47;;;;;;;27.88;13.25;;;;;;;;;;4773283;30;20392;-82
2021/11/27 06:01:13;;;;;;;25.52;12.75;;;;;;;;;;4761943;30;20028;-82
2021/11/27 06:03:39;;;;;;;26.40;13.15;;;;;;;;;;4773929;30;20039;-83
2021/11/27 06:06:05;;;;;;;27.40;14.93;;;;;;;;;;4774890;30;20038;-82
2021/11/27 06:08:31;;;;;;;28.02;14.05;;;;;;;;;;4777400;30;20086;-81
2021/11/27 06:10:57;;;;;;;30.70;15.27;;;;;;;;;;4778086;30;20035;-80
2021/11/27 06:13:24;;;;;;;27.05;14.25;;;;;;;;;;4776521;30;20039;-80
2021/11/27 06:15:50;;;;;;;34.55;14.60;;;;;;;;;;4775415;30;20097;-79
2021/11/27 06:18:16;;;;;;;31.00;14.60;;;;;;;;;;4775334;30;20028;-79
2021/11/27 06:20:42;;;;;;;26.98;13.68;;;;;;;;;;4782129;29;20035;-80
2021/11/27 06:23:08;;;;;;;24.80;14.02;;;;;;;;;;4779929;29;20044;-80
2021/11/27 06:25:34;;;;;;;29.20;14.73;;;;;;;;;;4772803;30;20027;-79
2021/11/27 06:28:00;;;;;;;26.90;14.30;;;;;;;;;;4773602;30;20027;-81
2021/11/27 06:30:26;;;;;;;22.77;11.27;;;;;;;;;;4772927;30;20031;-80
2021/11/27 06:32:52;;;;;;;22.00;12.50;;;;;;;;;;4771028;30;20032;-80
2021/11/27 06:35:18;;;;;;;24.08;11.90;;;;;;;;;;4757378;30;20039;-80
2021/11/27 06:37:44;;;;;;;26.23;12.52;;;;;;;;;;4775306;30;20031;-79
2021/11/27 06:40:11;;;;;;;26.02;13.02;;;;;;;;;;4773678;30;20518;-80
2021/11/27 06:42:37;;;;;;;27.13;12.43;;;;;;;;;;4772819;30;20407;-80
2021/11/27 06:45:04;;;;;;;29.20;15.32;;;;;;;;;;4773404;30;20034;-80
2021/11/27 06:47:30;;;;;;;29.08;15.27;;;;;;;;;;4773224;30;20031;-80
2021/11/27 06:49:56;;;;;;;28.38;13.48;;;;;;;;;;4772531;30;20062;-80
2021/11/27 06:52:22;;;;;;;25.75;14.13;;;;;;;;;;4758863;30;20063;-81
2021/11/27 06:54:48;;;;;;;30.65;15.25;;;;;;;;;;4775464;30;20513;-81
2021/11/27 06:57:14;;;;;;;30.10;15.38;;;;;;;;;;4774248;30;20555;-81
2021/11/27 06:59:41;;;;;;;29.13;13.50;;;;;;;;;;4776092;30;20039;-81
2021/11/27 07:02:07;;;;;;;29.13;14.05;;;;;;;;;;4775669;30;20081;-81
2021/11/27 07:04:33;;;;;;;27.38;14.63;;;;;;;;;;4790525;29;20039;-81
2021/11/27 07:06:59;;;;;;;28.70;13.77;;;;;;;;;;4777413;30;20039;-81
2021/11/27 07:09:25;;;;;;;34.28;15.77;;;;;;;;;;4774645;30;20580;-81
2021/11/27 07:11:52;;;;;;;29.88;13.88;;;;;;;;;;4774533;30;20032;-81
2021/11/27 07:14:18;;;;;;;30.25;15.48;;;;;;;;;;4775110;30;20034;-80
2021/11/27 07:16:44;;;;;;;32.38;14.95;;;;;;;;;;4757262;30;20146;-80
2021/11/27 07:19:10;;;;;;;29.48;15.18;;;;;;;;;;4773157;30;20067;-81
2021/11/27 07:21:36;;;;;;;30.95;14.95;;;;;;;;;;4775421;30;20042;-81
2021/11/27 07:24:02;;;;;;;27.60;14.25;;;;;;;;;;4775889;30;20027;-80
2021/11/27 07:26:28;;;;;;;33.03;16.27;;;;;;;;;;4758758;30;20031;-81
2021/11/27 07:28:57;;;;;;;28.88;14.93;;;;;;;;;;4774644;30;20111;-81
2021/11/27 07:31:23;;;;;;;27.85;13.32;;;;;;;;;;4773629;30;20085;-81
2021/11/27 07:33:50;;;;;;;26.40;12.88;;;;;;;;;;4772488;30;20036;-81
2021/11/27 07:36:16;;;;;;;26.15;14.63;;;;;;;;;;4757672;30;20035;-80
2021/11/27 07:38:42;;;;;;;28.02;14.77;;;;;;;;;;4766406;30;20031;-81
2021/11/27 07:41:08;;;;;;;28.38;13.55;;;;;;;;;;4774705;30;20032;-81
2021/11/27 07:43:34;;;;;;;23.73;13.88;;;;;;;;;;4774328;30;20048;-82
2021/11/27 07:46:00;;;;;;;23.48;13.68;;;;;;;;;;4758651;30;20039;-81
2021/11/27 07:48:31;;;;;;;26.88;13.73;;;;;;;;;;4774789;30;20036;-81
2021/11/27 07:50:57;;;;;;;27.73;14.23;;;;;;;;;;4776646;30;20054;-81
2021/11/27 07:53:23;;;;;;;25.05;13.40;;;;;;;;;;4759629;30;20028;-82
2021/11/27 07:55:49;;;;;;;28.58;12.93;;;;;;;;;;4756367;30;20131;-82
2021/11/27 07:58:15;;;;;;;25.58;13.10;;;;;;;;;;4774271;30;20054;-82
2021/11/27 08:00:41;;;;;;;25.58;13.60;;;;;;;;;;4774503;30;20770;-83
2021/11/27 08:03:07;;;;;;;27.10;13.52;;;;;;;;;;4758427;30;20502;-82
2021/11/27 08:05:33;;;;;;;25.60;13.85;;;;;;;;;;4758428;30;20039;-82
2021/11/27 08:07:59;;;;;;;27.25;13.40;;;;;;;;;;4778577;29;20472;-83
2021/11/27 08:10:25;;;;;;;25.63;13.70;;;;;;;;;;4784660;29;20173;-82
2021/11/27 08:12:51;;;;;;;23.52;12.93;;;;;;;;;;4783994;30;20043;-83
2021/11/27 08:15:17;;;;;;;26.33;14.23;;;;;;;;;;4774462;30;20040;-83
2021/11/27 08:17:43;;;;;;;22.02;12.52;;;;;;;;;;4774180;30;20122;-82
2021/11/27 08:20:10;;;;;;;21.38;11.82;;;;;;;;;;4774613;30;20047;-82
2021/11/27 08:22:37;;;;;;;23.65;13.23;;;;;;;;;;4773053;30;20032;-81
2021/11/27 08:25:03;;;;;;;18.92;11.32;;;;;;;;;;4759210;30;20064;-80
2021/11/27 08:27:29;;;;;;;19.63;11.30;;;;;;;;;;4789022;30;20043;-80
2021/11/27 08:29:56;;;;;;;22.05;12.60;;;;;;;;;;4785314;29;20040;-83
2021/11/27 08:32:22;;;;;;;20.92;12.40;;;;;;;;;;4775482;30;20039;-81
2021/11/27 08:34:48;;;;;;;22.17;12.77;;;;;;;;;;4769948;30;20034;-81
2021/11/27 08:37:15;;;;;;;21.77;14.07;;;;;;;;;;4769576;30;20376;-81
2021/11/27 08:39:41;;;;;;;22.15;14.20;;;;;;;;;;4755694;30;20043;-81
2021/11/27 08:42:08;;;;;;;30.42;15.82;;;;;;;;;;4753822;30;20040;-80
2021/11/27 08:44:34;;;;;;;17.65;12.05;;;;;;;;;;4773232;30;20395;-81
2021/11/27 08:47:00;;;;;;;22.88;13.65;;;;;;;;;;4774308;30;20126;-80
2021/11/27 08:49:26;;;;;;;20.05;13.27;;;;;;;;;;4762822;30;20040;-81
2021/11/27 08:51:59;;;;;;;17.17;12.45;;;;;;;;;;5069797;28;21001;-80
2021/11/27 08:54:25;;;;;;;22.90;14.10;;;;;;;;;;5060079;28;20033;-82
2021/11/27 08:56:51;;;;;;;23.08;13.82;;;;;;;;;;5054157;28;20383;-82
2021/11/27 08:59:18;;;;;;;22.75;14.13;;;;;;;;;;5056111;28;20029;-83
2021/11/27 09:01:44;;;;;;;22.50;14.95;;;;;;;;;;5056166;28;20059;-83
2021/11/27 09:04:10;;;;;;;22.15;14.20;;;;;;;;;;5054009;28;20017;-83
2021/11/27 09:06:37;;;;;;;21.13;13.45;;;;;;;;;;5060950;28;20113;-83
2021/11/27 09:09:03;;;;;;;20.65;14.88;;;;;;;;;;5063943;28;20402;-83
2021/11/27 09:11:31;;;;;;;20.83;14.55;;;;;;;;;;5054037;28;20044;-83
2021/11/27 09:13:57;;;;;;;25.05;16.77;;;;;;;;;;5054475;28;20471;-83
2021/11/27 09:16:23;;;;;;;25.45;16.58;;;;;;;;;;5056320;28;20606;-82
2021/11/27 09:18:49;;;;;;;29.00;16.05;;;;;;;;;;5071418;28;20025;-83
2021/11/27 09:21:15;;;;;;;29.00;18.40;;;;;;;;;;5063928;28;20036;-82
2021/11/27 09:23:41;;;;;;;27.85;16.45;;;;;;;;;;5062368;28;20040;-83
2021/11/27 09:26:07;;;;;;;26.30;17.02;;;;;;;;;;5070367;28;20064;-82
2021/11/27 09:28:34;;;;;;;26.50;17.27;;;;;;;;;;5068909;28;20024;-82
2021/11/27 09:34:11;;;;;;;25.77;16.77;;;;;;;;;;5052232;28;21207;-84
2021/11/27 09:36:38;;;;;;;27.25;16.88;;;;;;;;;;5056015;28;20024;-84
2021/11/27 09:39:05;;;;;;;28.20;16.52;;;;;;;;;;5072142;28;20029;-82
2021/11/27 09:45:04;;;;;;;32.17;17.65;;;;;;;;;;5055250;28;20031;-83
2021/11/27 09:47:32;;;;;;;30.77;17.63;;;;;;;;;;5067543;28;20098;-85
2021/11/27 09:49:59;;;;;;;30.38;17.75;;;;;;;;;;5072393;28;20051;-84
2021/11/27 09:52:25;;;;;;;31.55;17.23;;;;;;;;;;5073109;28;20043;-84
2021/11/27 10:00:59;;;;;;;32.28;17.02;;;;;;;;;;5050376;28;20769;-80
2021/11/27 10:03:25;;;;;;;28.25;16.23;;;;;;;;;;5035465;28;20018;-81
2021/11/27 10:05:52;;;;;;;29.15;16.55;;;;;;;;;;5044573;28;20029;-80
2021/11/27 10:08:18;;;;;;;32.33;18.00;;;;;;;;;;5046531;28;20075;-81
2021/11/27 10:10:45;;;;;;;36.60;19.50;;;;;;;;;;5046392;28;20051;-81
2021/11/27 10:13:11;;;;;;;33.05;18.20;;;;;;;;;;5055395;28;20025;-82
2021/11/27 10:15:37;;;;;;;33.65;18.38;;;;;;;;;;5035632;28;20029;-80
2021/11/27 10:18:17;;;;;;;32.40;18.98;;;;;;;;;;5045199;28;20026;-81
2021/11/27 10:20:43;;;;;;;33.60;17.17;;;;;;;;;;5047039;28;20483;-81
2021/11/27 10:23:09;;;;;;;33.83;18.20;;;;;;;;;;5055269;28;20032;-81
2021/11/27 10:25:37;;;;;;;34.30;17.80;;;;;;;;;;5046372;28;20652;-81
2021/11/27 10:28:11;;;;;;;27.48;15.65;;;;;;;;;;5037974;28;20596;-81
2021/11/27 10:30:48;;;;;;;28.50;15.57;;;;;;;;;;5036922;28;20025;-81
2021/11/27 10:33:16;;;;;;;26.77;15.52;;;;;;;;;;5040790;28;20017;-81
2021/11/27 10:35:49;;;;;;;28.05;15.82;;;;;;;;;;5045250;28;20061;-82
2021/11/27 10:44:28;;;;;;;26.27;14.40;;;;;;;;;;5047297;28;20051;-80
2021/11/27 10:49:30;;;;;;;21.50;11.85;;;;;;;;;;3062652;22;20042;-78
2021/11/27 11:00:49;;;;;;;17.98;11.32;;;;;;;;;;4999145;28;20060;-83
2021/11/27 11:03:31;;;;;;;23.40;12.65;;;;;;;;;;5000377;28;20025;-83
2021/11/27 11:05:58;;;;;;;22.05;12.05;;;;;;;;;;5012993;28;20145;-82
2021/11/27 11:08:37;;;;;;;19.83;11.57;;;;;;;;;;5000061;28;20034;-83
2021/11/27 11:14:28;;;;;;;19.63;12.70;;;;;;;;;;4981643;28;20030;-83
2021/11/27 11:16:59;;;;;;;28.35;14.63;;;;;;;;;;5005728;28;20034;-83
2021/11/27 11:19:25;;;;;;;28.02;16.30;;;;;;;;;;4998326;28;20019;-83
2021/11/27 11:22:10;;;;;;;23.58;13.68;;;;;;;;;;4997212;28;20030;-83
2021/11/27 11:24:37;;;;;;;23.95;14.13;;;;;;;;;;4996362;28;20018;-83
2021/11/27 11:27:07;;;;;;;25.15;16.48;;;;;;;;;;4997292;28;20037;-83
2021/11/27 11:29:45;;;;;;;18.73;12.20;;;;;;;;;;5017031;28;20040;-82
2021/11/27 11:32:27;;;;;;;25.00;13.63;;;;;;;;;;5038658;28;20037;-83
2021/11/27 11:34:54;;;;;;;21.98;13.43;;;;;;;;;;5005692;28;20323;-84
2021/11/27 11:37:20;;;;;;;20.38;12.55;;;;;;;;;;5009142;28;20029;-83
2021/11/27 11:39:47;;;;;;;21.60;11.65;;;;;;;;;;5013808;28;20044;-83
2021/11/27 11:45:32;;;;;;;20.30;12.52;;;;;;;;;;5000300;28;20431;-83
2021/11/27 12:00:19;;;;;;;24.08;13.65;;;;;;;;;;4999369;28;20525;-84
2021/11/27 12:02:46;;;;;;;26.95;14.82;;;;;;;;;;5001621;28;20404;-85
2021/11/27 12:05:15;;;;;;;21.63;12.52;;;;;;;;;;5007683;28;20033;-84
2021/11/27 12:07:47;;;;;;;23.60;13.02;;;;;;;;;;5000783;28;20080;-84
2021/11/27 12:10:13;;;;;;;25.55;13.75;;;;;;;;;;5011361;28;20070;-83
2021/11/27 12:12:39;;;;;;;26.52;13.35;;;;;;;;;;5005033;28;20041;-85
2021/11/27 12:15:06;;;;;;;24.60;14.02;;;;;;;;;;4996199;28;20535;-84
2021/11/27 12:17:32;;;;;;;25.83;13.63;;;;;;;;;;4995746;28;20058;-84
2021/11/27 12:20:04;;;;;;;26.15;14.57;;;;;;;;;;4995902;28;20029;-84
2021/11/27 12:22:37;;;;;;;27.08;13.50;;;;;;;;;;5004487;28;20045;-84
2021/11/27 12:25:03;;;;;;;24.50;14.45;;;;;;;;;;5012421;28;20026;-83
2021/11/27 12:27:29;;;;;;;26.52;13.15;;;;;;;;;;4998403;28;20026;-84
2021/11/27 12:30:03;;;;;;;23.77;12.73;;;;;;;;;;4995200;28;20209;-84
2021/11/27 12:32:36;;;;;;;24.40;13.05;;;;;;;;;;5001078;28;20121;-84
2021/11/27 12:35:02;;;;;;;25.40;11.98;;;;;;;;;;4995989;28;20164;-84
2021/11/27 12:37:28;;;;;;;25.40;12.50;;;;;;;;;;5000515;28;20054;-84
2021/11/27 12:39:55;;;;;;;29.23;17.25;;;;;;;;;;5000214;28;20459;-84
2021/11/27 12:42:23;;;;;;;25.95;16.33;;;;;;;;;;5013929;28;20041;-84
2021/11/27 12:44:50;;;;;;;21.98;13.00;;;;;;;;;;5002357;28;20037;-84
2021/11/27 12:47:16;;;;;;;24.35;13.00;;;;;;;;;;4998842;28;20089;-82
2021/11/27 12:49:45;;;;;;;26.17;14.00;;;;;;;;;;5013329;28;20113;-82
2021/11/27 12:52:15;;;;;;;27.20;14.70;;;;;;;;;;4989846;28;20332;-83
2021/11/27 12:55:01;;;;;;;26.60;13.85;;;;;;;;;;5015417;28;20022;-83
2021/11/27 12:57:28;;;;;;;22.80;13.30;;;;;;;;;;4983102;28;20038;-83
2021/11/27 13:00:14;;;;;;;21.80;12.20;;;;;;;;;;4995742;28;20031;-84
2021/11/27 13:03:09;;;;;;;22.38;13.02;;;;;;;;;;4993252;28;20099;-84
2021/11/27 13:05:36;;;;;;;22.58;11.93;;;;;;;;;;4972465;28;20172;-83
2021/11/27 13:08:03;;;;;;;23.77;13.02;;;;;;;;;;4952498;28;20086;-83
2021/11/27 13:10:33;;;;;;;25.25;13.52;;;;;;;;;;4964742;28;20521;-84
2021/11/27 13:13:03;;;;;;;20.67;11.93;;;;;;;;;;4953509;28;20072;-83
2021/11/27 13:15:29;;;;;;;23.42;12.23;;;;;;;;;;4970626;28;20031;-83
2021/11/27 13:18:05;;;;;;;26.42;12.27;;;;;;;;;;4971973;28;20031;-83
2021/11/27 13:20:45;;;;;;;25.77;13.45;;;;;;;;;;4972290;28;20650;-82
2021/11/27 13:23:11;;;;;;;22.63;12.13;;;;;;;;;;4955989;28;20571;-83
2021/11/27 13:25:38;;;;;;;27.15;13.07;;;;;;;;;;4947401;28;20740;-81
2021/11/27 13:28:04;;;;;;;32.80;14.50;;;;;;;;;;4971934;28;20085;-82
2021/11/27 13:30:30;;;;;;;30.00;14.43;;;;;;;;;;4955392;28;20118;-81
2021/11/27 13:32:56;;;;;;;31.60;14.77;;;;;;;;;;4966305;28;20448;-82
2021/11/27 13:35:23;;;;;;;30.48;14.55;;;;;;;;;;4965047;28;20126;-82
2021/11/27 13:37:53;;;;;;;26.75;14.70;;;;;;;;;;4973796;28;20035;-81
2021/11/27 13:40:22;;;;;;;29.35;15.05;;;;;;;;;;4975314;28;20039;-81
2021/11/27 13:42:49;;;;;;;30.20;16.35;;;;;;;;;;4978262;28;20042;-82
2021/11/27 13:45:15;;;;;;;30.20;15.07;;;;;;;;;;5005812;28;20033;-81
2021/11/27 13:47:41;;;;;;;30.33;13.52;;;;;;;;;;5016570;28;20026;-81
2021/11/27 13:50:11;;;;;;;31.90;15.85;;;;;;;;;;5016296;28;20448;-82
2021/11/27 13:52:39;;;;;;;27.88;15.90;;;;;;;;;;5015641;28;20046;-81
2021/11/27 13:55:12;;;;;;;31.10;13.57;;;;;;;;;;5000021;28;20022;-82
2021/11/27 13:57:38;;;;;;;;;;;;;;;;;;4998434;28;20023;-81
2021/11/27 14:00:25;;;;;;;30.00;13.77;;;;;;;;;;5016566;28;19905;-83
2021/11/27 14:02:59;;;;;;;31.17;16.23;;;;;;;;;;5015968;28;20121;-83
2021/11/27 14:05:28;;;;;;;28.10;15.38;;;;;;;;;;5005703;28;20440;-81
2021/11/27 14:07:54;;;;;;;31.20;15.35;;;;;;;;;;4996608;28;20026;-81
2021/11/27 14:10:21;;;;;;;34.05;16.13;;;;;;;;;;4997832;28;20417;-81
2021/11/27 14:12:52;;;;;;;31.23;15.40;;;;;;;;;;5015995;28;20026;-82
2021/11/27 14:15:19;;;;;;;31.52;15.13;;;;;;;;;;5004212;28;20057;-81
2021/11/27 14:18:04;;;;;;;38.28;17.20;;;;;;;;;;5007221;28;20473;-80
2021/11/27 14:20:35;;;;;;;28.27;15.55;;;;;;;;;;5002069;28;20581;-80
2021/11/27 14:23:03;;;;;;;29.42;15.98;;;;;;;;;;4996296;28;20492;-81
2021/11/27 14:25:31;;;;;;;29.42;14.80;;;;;;;;;;5002397;28;20054;-81
2021/11/27 14:27:57;;;;;;;26.92;14.75;;;;;;;;;;4996440;28;20480;-80
2021/11/27 14:30:25;;;;;;;26.33;14.23;;;;;;;;;;4998222;28;20165;-80
2021/11/27 14:32:52;;;;;;;26.90;14.30;;;;;;;;;;4998375;28;20826;-81
2021/11/27 14:35:28;;;;;;;25.65;13.98;;;;;;;;;;5005730;28;20372;-81
2021/11/27 14:37:54;;;;;;;29.10;15.35;;;;;;;;;;4999847;28;20034;-79
2021/11/27 14:40:20;;;;;;;30.88;14.85;;;;;;;;;;4997775;28;20492;-80
2021/11/27 14:42:46;;;;;;;29.73;14.70;;;;;;;;;;5001550;28;20022;-80
2021/11/27 14:45:12;;;;;;;28.63;15.50;;;;;;;;;;5017540;28;20117;-80
2021/11/27 14:47:48;;;;;;;26.20;15.00;;;;;;;;;;5028571;28;20041;-78
2021/11/27 14:50:15;;;;;;;27.70;15.18;;;;;;;;;;5003115;28;20060;-80
2021/11/27 14:52:41;;;;;;;27.15;15.30;;;;;;;;;;4995482;28;20043;-81
2021/11/27 14:55:08;;;;;;;33.42;16.05;;;;;;;;;;5002343;28;20113;-81
2021/11/27 14:57:36;;;;;;;27.80;15.45;;;;;;;;;;5013214;28;20030;-80
2021/11/27 15:00:07;;;;;;;31.13;16.30;;;;;;;;;;5009308;28;20022;-80
2021/11/27 15:02:35;;;;;;;28.45;15.30;;;;;;;;;;5001094;28;20115;-80
2021/11/27 15:05:01;;;;;;;27.70;15.70;;;;;;;;;;5012322;28;20044;-82
2021/11/27 15:07:31;;;;;;;28.38;14.10;;;;;;;;;;5004651;28;20065;-82
2021/11/27 15:10:00;;;;;;;25.67;15.00;;;;;;;;;;4995685;28;20141;-80